createdAt,value
2022-10-03T00:12:11.115Z,6.50
2022-10-03T00:26:11.115Z,6.55
2022-10-03T00:40:11.134Z,5.70
2022-10-03T00:54:11.138Z,5.55
2022-10-03T01:08:11.143Z,5.20
2022-10-03T01:22:11.171Z,4.40
2022-10-03T01:36:11.157Z,4.00
2022-10-03T01:50:11.216Z,4.10
2022-10-03T02:04:11.199Z,4.30
2022-10-03T02:18:11.223Z,3.80
2022-10-03T02:32:11.196Z,3.40
2022-10-03T02:46:11.274Z,3.90
2022-10-03T03:00:11.207Z,3.60
2022-10-03T03:14:11.221Z,3.50
2022-10-03T03:28:11.280Z,3.20
2022-10-03T03:42:11.289Z,2.90
2022-10-03T03:56:11.229Z,3.10
2022-10-03T04:10:11.230Z,2.90
2022-10-03T04:24:11.241Z,3.10
2022-10-03T04:38:11.272Z,2.60
2022-10-03T04:52:11.268Z,2.80
2022-10-03T05:06:11.251Z,3.40
2022-10-03T05:21:11.260Z,4.60
2022-10-03T05:36:11.291Z,6.70
2022-10-03T05:51:11.261Z,6.70
2022-10-03T06:06:11.296Z,8.60
2022-10-03T06:21:11.310Z,9.50
2022-10-03T06:36:11.316Z,8.85
2022-10-03T06:51:11.342Z,9.00
2022-10-03T07:06:11.371Z,12.20
2022-10-03T07:21:14.777Z,11.30
2022-10-03T07:36:11.381Z,12.80
2022-10-03T07:51:11.389Z,10.80
2022-10-03T08:06:11.405Z,8.40
2022-10-03T08:22:11.404Z,13.60
2022-10-03T08:37:11.461Z,9.30
2022-10-03T08:52:11.567Z,10.60
2022-10-03T09:07:18.211Z,10.50
2022-10-03T09:22:11.486Z,7.10
2022-10-03T09:37:11.494Z,6.00
2022-10-03T09:52:11.527Z,6.60
2022-10-03T10:07:11.654Z,5.70
2022-10-03T10:22:11.653Z,7.95
2022-10-03T10:38:05.786Z,7.70
2022-10-03T10:52:05.748Z,6.40
2022-10-03T11:07:05.969Z,4.60
2022-10-03T11:22:06.295Z,3.50
2022-10-03T11:37:05.965Z,9.10
2022-10-03T11:52:06.145Z,7.80
2022-10-03T12:07:06.856Z,8.10
2022-10-03T12:22:06.949Z,4.10
2022-10-03T12:37:07.039Z,4.20
2022-10-03T12:52:07.094Z,3.30
2022-10-03T13:07:07.171Z,4.40
2022-10-03T13:22:07.209Z,2.95
2022-10-03T13:37:07.219Z,2.85
2022-10-03T13:52:07.210Z,2.30
2022-10-03T14:04:26.814Z,1.80
2022-10-03T14:19:26.965Z,2.90
2022-10-03T14:34:26.990Z,3.30
2022-10-03T14:49:51.295Z,4.50
2022-10-03T15:04:26.896Z,6.15
2022-10-03T15:19:26.890Z,5.70
2022-10-03T15:34:27.020Z,5.60
2022-10-03T15:49:27.018Z,6.30
2022-10-03T16:04:27.554Z,6.20
2022-10-03T16:20:27.483Z,5.50
2022-10-03T16:35:27.496Z,4.60
2022-10-03T16:51:27.526Z,6.20
2022-10-03T17:06:27.540Z,8.10
2022-10-03T17:21:27.650Z,11.50
2022-10-03T17:35:27.716Z,12.20
2022-10-03T17:49:27.664Z,12.30
2022-10-03T18:04:27.841Z,12.20
2022-10-03T18:18:27.904Z,10.50
2022-10-03T18:32:27.930Z,11.00
2022-10-03T18:46:28.061Z,9.00
2022-10-03T19:00:28.098Z,10.00
2022-10-03T19:14:28.072Z,10.60
2022-10-03T19:28:28.179Z,9.10
2022-10-03T19:42:28.316Z,11.00
2022-10-03T19:56:28.204Z,9.90
2022-10-03T20:10:28.183Z,9.70
2022-10-03T20:24:28.143Z,5.70
2022-10-03T20:38:28.169Z,7.70
2022-10-03T20:52:28.209Z,5.90
2022-10-03T21:06:28.214Z,7.50
2022-10-03T21:20:28.275Z,6.00
2022-10-03T21:34:28.226Z,5.90
2022-10-03T21:48:28.233Z,5.30
2022-10-03T22:02:28.289Z,4.60
2022-10-03T22:16:28.287Z,4.90
2022-10-03T22:30:28.230Z,4.10
2022-10-03T22:44:28.263Z,3.30
2022-10-03T22:58:28.361Z,3.30
2022-10-03T23:12:28.377Z,4.00
2022-10-03T23:26:28.359Z,2.80
2022-10-03T23:40:28.397Z,3.00
2022-10-03T23:54:28.375Z,2.70
